Time;durP1;ratioP1;P1;durP2;ratioP2;P2;SDS_P1;SDS_P2;PMS_P1;PMS_P2;Temp;Humidity;BMP_temperature;BMP_pressure;BME280_temperature;BME280_humidity;BME280_pressure;Samples;Min_cycle;Max_cycle;Signal;HPM_P1;HPM_P2
2022/05/24 00:01:10;;;;;;;5.40;1.38;;;;;;;10.53;28.10;98236.94;5096197;28;20076;-70
2022/05/24 00:03:37;;;;;;;4.65;2.15;;;;;;;10.44;28.68;98244.69;5096099;28;20414;-71
2022/05/24 00:06:05;;;;;;;8.07;2.13;;;;;;;10.42;28.34;98236.72;5095806;28;20052;-70
2022/05/24 00:08:33;;;;;;;21.30;2.25;;;;;;;10.39;28.54;98236.66;5103819;28;20144;-70
2022/05/24 00:11:01;;;;;;;6.22;1.67;;;;;;;10.41;28.07;98234.31;5116503;28;20056;-70
2022/05/24 00:13:28;;;;;;;2.92;1.83;;;;;;;10.44;28.44;98228.81;5116326;28;20052;-70
2022/05/24 00:15:56;;;;;;;4.95;2.67;;;;;;;10.39;28.74;98236.66;5116392;27;20148;-69
2022/05/24 00:18:27;;;;;;;5.47;2.05;;;;;;;10.35;28.43;98238.53;5116214;28;20047;-70
2022/05/24 00:20:57;;;;;;;5.07;2.00;;;;;;;10.26;28.39;98238.75;5115891;28;20052;-71
2022/05/24 00:23:26;;;;;;;12.77;2.72;;;;;;;10.19;28.88;98235.00;5116137;27;20139;-71
2022/05/24 00:25:56;;;;;;;3.78;1.48;;;;;;;10.19;28.87;98240.56;5116162;28;20054;-70
2022/05/24 00:28:25;;;;;;;6.20;1.65;;;;;;;10.19;28.82;98243.34;5116174;27;20138;-70
2022/05/24 00:30:53;;;;;;;7.25;1.38;;;;;;;10.17;28.44;98243.69;5116052;28;20048;-70
2022/05/24 00:33:23;;;;;;;4.95;1.90;;;;;;;10.14;28.50;98246.38;5115577;28;20047;-70
2022/05/24 00:35:50;;;;;;;6.63;1.77;;;;;;;10.17;28.61;98245.66;5115631;28;20047;-71
2022/05/24 00:38:25;;;;;;;4.13;2.38;;;;;;;10.21;29.25;98239.00;5116259;28;20395;-69
2022/05/24 00:41:22;;;;;;;5.25;2.17;;;;;;;10.23;28.87;98238.66;5115605;28;20059;-71
2022/05/24 00:44:18;;;;;;;6.70;2.88;;;;;;;10.20;29.06;98239.38;5115255;28;20044;-70
2022/05/24 00:47:02;;;;;;;4.00;1.85;;;;;;;10.18;28.93;98250.03;5111427;28;20119;-69
2022/05/24 00:49:49;;;;;;;5.53;1.75;;;;;;;10.21;28.98;98247.34;5115772;28;20047;-70
2022/05/24 00:52:22;;;;;;;6.57;2.28;;;;;;;10.27;28.88;98251.47;5104482;28;20392;-70
2022/05/24 00:54:55;;;;;;;6.25;2.03;;;;;;;10.18;29.18;98253.63;5095710;28;20044;-67
2022/05/24 00:57:31;;;;;;;4.57;1.60;;;;;;;10.14;29.17;98246.38;5098565;28;20054;-66
2022/05/24 01:00:03;;;;;;;3.97;1.85;;;;;;;10.10;29.61;98245.50;5115827;28;20048;-67
2022/05/24 01:02:30;;;;;;;4.68;2.15;;;;;;;9.99;29.11;98249.94;5115538;28;20058;-67
2022/05/24 01:04:57;;;;;;;6.97;1.58;;;;;;;9.97;29.81;98241.16;5115443;28;20088;-67
2022/05/24 01:07:24;;;;;;;7.30;2.13;;;;;;;9.99;29.84;98245.22;5114991;28;20113;-67
2022/05/24 01:09:56;;;;;;;3.17;1.75;;;;;;;9.99;29.60;98239.66;5114762;28;20043;-66
2022/05/24 01:12:27;;;;;;;7.80;1.85;;;;;;;9.99;30.06;98239.66;5114782;28;20163;-66
2022/05/24 01:14:58;;;;;;;3.28;1.73;;;;;;;10.01;29.57;98236.53;5115221;28;20164;-66
2022/05/24 01:17:25;;;;;;;4.55;1.63;;;;;;;9.99;29.51;98236.06;5113670;28;20073;-67
2022/05/24 01:19:52;;;;;;;4.13;2.03;;;;;;;9.98;29.54;98242.78;5113964;28;20047;-67
2022/05/24 01:22:24;;;;;;;3.50;1.60;;;;;;;9.98;29.96;98242.78;5115055;28;20048;-66
2022/05/24 01:25:15;;;;;;;2.50;1.55;;;;;;;9.99;29.88;98244.41;5115065;28;20135;-66
2022/05/24 01:27:41;;;;;;;4.95;1.67;;;;;;;9.92;29.79;98241.47;5109143;28;20067;-66
2022/05/24 01:30:10;;;;;;;4.00;1.80;;;;;;;9.92;29.89;98247.00;5109919;28;20046;-67
2022/05/24 01:38:12;;;;;;;4.15;1.80;;;;;;;9.95;29.97;98243.50;5094656;28;20048;-66
2022/05/24 01:40:39;;;;;;;6.18;1.63;;;;;;;9.88;30.15;98248.88;5093984;28;20047;-68
2022/05/24 01:43:07;;;;;;;3.10;1.60;;;;;;;9.91;30.50;98254.53;5094362;28;20534;-67
2022/05/24 01:45:48;;;;;;;5.18;1.50;;;;;;;9.90;30.26;98246.56;5094219;28;20406;-68
2022/05/24 01:48:19;;;;;;;5.13;1.45;;;;;;;9.86;29.98;98248.44;5111691;28;20047;-66
2022/05/24 01:50:47;;;;;;;8.52;1.77;;;;;;;9.92;29.89;98252.56;5114434;28;20051;-66
2022/05/24 01:53:19;;;;;;;7.13;1.77;;;;;;;9.99;30.12;98256.31;5114434;28;20108;-67
2022/05/24 01:55:53;;;;;;;3.80;2.00;;;;;;;10.03;29.83;98243.31;5113587;28;20053;-67
2022/05/24 01:58:22;;;;;;;3.08;1.48;;;;;;;10.12;29.57;98245.91;5114486;28;20067;-67
2022/05/24 02:00:58;;;;;;;3.40;1.50;;;;;;;10.14;29.49;98255.53;5113961;28;20061;-68
2022/05/24 02:03:26;;;;;;;7.30;1.85;;;;;;;10.15;29.54;98253.53;5114398;28;20465;-67
2022/05/24 02:05:53;;;;;;;4.10;1.60;;;;;;;10.17;29.75;98251.22;5112739;28;20056;-68
2022/05/24 02:08:20;;;;;;;4.78;1.27;;;;;;;10.17;29.51;98245.66;5113803;28;20047;-67
2022/05/24 02:10:59;;;;;;;4.47;1.60;;;;;;;10.14;29.81;98251.94;5113717;28;20063;-67
2022/05/24 02:13:33;;;;;;;2.42;1.48;;;;;;;10.15;29.55;98250.75;5114095;28;20494;-72
2022/05/24 02:16:06;;;;;;;4.28;1.20;;;;;;;10.15;29.32;98250.75;5113989;28;20692;-66
2022/05/24 02:18:34;;;;;;;5.35;1.38;;;;;;;10.17;29.52;98245.66;5113952;28;20460;-67
2022/05/24 02:21:01;;;;;;;4.10;1.40;;;;;;;10.23;29.24;98250.59;5113777;28;20055;-67
2022/05/24 02:23:28;;;;;;;4.57;1.63;;;;;;;10.24;29.22;98245.81;5113996;28;20063;-67
2022/05/24 02:25:58;;;;;;;6.03;1.65;;;;;;;10.32;29.12;98251.19;5113838;28;20054;-66
2022/05/24 02:28:29;;;;;;;4.80;2.23;;;;;;;10.35;29.02;98256.03;5113589;27;20134;-67
2022/05/24 02:31:03;;;;;;;4.03;1.30;;;;;;;10.37;28.92;98255.66;5107798;28;20430;-66
2022/05/24 02:33:32;;;;;;;4.90;1.20;;;;;;;10.32;28.62;98253.16;5093251;28;20406;-66
2022/05/24 02:35:59;;;;;;;3.88;1.58;;;;;;;10.31;29.28;98263.50;5098108;28;20054;-66
2022/05/24 02:38:27;;;;;;;8.45;1.92;;;;;;;10.26;28.87;98260.97;5113986;28;20050;-66
2022/05/24 02:43:40;;;;;;;3.55;1.50;;;;;;;10.39;29.58;98264.47;5113885;28;20054;-67
2022/05/24 02:46:07;;;;;;;3.78;1.40;;;;;;;10.46;28.94;98259.03;5113768;28;20407;-67
2022/05/24 02:48:38;;;;;;;4.57;1.55;;;;;;;10.51;29.17;98264.34;5113783;28;20075;-67
2022/05/24 02:51:09;;;;;;;13.88;1.60;;;;;;;10.54;29.40;98264.38;5113327;28;20130;-66
2022/05/24 02:53:40;;;;;;;5.00;1.70;;;;;;;10.54;29.38;98267.16;5113410;28;20562;-66
2022/05/24 02:56:08;;;;;;;4.93;1.52;;;;;;;10.58;29.37;98256.13;5113289;28;20452;-67
2022/05/24 02:58:35;;;;;;;4.07;1.60;;;;;;;10.67;28.77;98254.78;5113576;28;20062;-67
2022/05/24 03:01:04;;;;;;;11.75;2.42;;;;;;;10.82;29.05;98255.88;5112950;28;20061;-66
2022/05/24 03:03:31;;;;;;;4.80;1.98;;;;;;;10.86;29.55;98256.75;5113046;28;20490;-68
2022/05/24 03:05:58;;;;;;;4.95;2.05;;;;;;;10.87;29.05;98252.81;5113342;28;20138;-67
2022/05/24 03:11:11;;;;;;;4.57;2.10;;;;;;;10.97;30.20;98247.47;5113048;28;20433;-67
2022/05/24 03:16:23;;;;;;;5.28;2.00;;;;;;;10.98;30.04;98257.41;5113165;28;20052;-70
2022/05/24 03:18:50;;;;;;;8.35;2.50;;;;;;;11.04;29.75;98266.25;5112889;28;20089;-70
2022/05/24 03:21:17;;;;;;;7.13;2.00;;;;;;;11.10;30.07;98262.00;5113887;28;20043;-71
2022/05/24 03:23:44;;;;;;;6.25;1.95;;;;;;;11.10;30.41;98259.22;5113149;28;20039;-70
2022/05/24 03:26:11;;;;;;;5.50;1.85;;;;;;;11.11;30.28;98267.22;5112971;28;20058;-70
2022/05/24 03:28:38;;;;;;;3.50;1.67;;;;;;;11.10;30.58;98267.56;5113064;28;20567;-70
2022/05/24 03:31:06;;;;;;;6.00;1.85;;;;;;;11.08;30.87;98258.81;5113069;28;20506;-70
2022/05/24 03:33:33;;;;;;;9.30;2.10;;;;;;;11.09;30.28;98272.34;5113040;28;20460;-71
2022/05/24 03:36:01;;;;;;;9.07;2.55;;;;;;;11.05;30.45;98256.75;5113025;28;20424;-71
2022/05/24 03:38:31;;;;;;;9.70;2.08;;;;;;;11.05;30.84;98265.09;5113025;28;20048;-70
2022/05/24 03:40:57;;;;;;;7.25;2.60;;;;;;;10.97;31.59;98266.13;5112744;28;20058;-70
2022/05/24 03:43:26;;;;;;;10.23;2.25;;;;;;;10.84;31.20;98271.00;5112861;28;20057;-70
2022/05/24 03:46:08;;;;;;;7.93;2.45;;;;;;;10.78;31.50;98243.88;5113000;28;20051;-70
2022/05/24 03:48:36;;;;;;;9.48;3.35;;;;;;;10.81;31.94;98254.28;5113140;28;20055;-70
2022/05/24 03:51:04;;;;;;;3.22;2.00;;;;;;;10.77;31.72;98243.06;5112574;28;20055;-71
2022/05/24 03:53:32;;;;;;;4.35;1.60;;;;;;;10.78;31.46;98238.31;5111812;28;20086;-67
2022/05/24 03:55:59;;;;;;;7.68;2.20;;;;;;;10.83;31.82;98257.47;5112778;28;20135;-70
2022/05/24 03:58:26;;;;;;;3.92;1.67;;;;;;;10.79;31.77;98256.59;5112789;28;20498;-72
2022/05/24 04:00:53;;;;;;;5.63;2.00;;;;;;;10.63;32.20;98264.22;5112636;28;20194;-71
2022/05/24 04:03:20;;;;;;;8.23;2.22;;;;;;;10.50;32.19;98266.31;5112465;28;20048;-70
2022/05/24 04:05:48;;;;;;;3.53;1.77;;;;;;;10.50;32.17;98259.91;5112726;28;20048;-70
2022/05/24 04:08:17;;;;;;;4.72;2.10;;;;;;;10.44;32.20;98264.97;5112403;28;20044;-70
2022/05/24 04:10:44;;;;;;;6.55;1.50;;;;;;;10.39;32.33;98259.69;5112144;28;20058;-71
2022/05/24 04:13:12;;;;;;;8.48;2.03;;;;;;;10.34;32.46;98259.16;5112289;28;20097;-71
2022/05/24 04:15:39;;;;;;;11.73;1.95;;;;;;;10.34;31.82;98267.50;5112491;28;20043;-71
2022/05/24 04:18:06;;;;;;;8.13;1.63;;;;;;;10.32;31.69;98264.28;5112650;28;20057;-70
2022/05/24 04:20:33;;;;;;;4.80;2.08;;;;;;;10.37;32.30;98261.22;5116479;28;20055;-70
2022/05/24 04:23:02;;;;;;;8.18;1.80;;;;;;;10.50;31.71;98248.81;5116528;28;20454;-70
2022/05/24 04:25:33;;;;;;;4.93;1.88;;;;;;;10.63;30.78;98262.22;5116206;28;20559;-71
2022/05/24 04:28:00;;;;;;;10.68;2.30;;;;;;;10.70;31.19;98267.13;5116137;28;20097;-73
2022/05/24 04:30:27;;;;;;;10.38;2.08;;;;;;;10.73;30.40;98258.06;5100633;28;20489;-70
2022/05/24 04:32:54;;;;;;;11.05;1.88;;;;;;;10.76;30.47;98251.75;5095356;28;20083;-71
2022/05/24 04:35:21;;;;;;;7.07;2.25;;;;;;;10.80;30.01;98260.97;5095210;28;20503;-71
2022/05/24 04:37:48;;;;;;;8.40;2.20;;;;;;;10.77;30.54;98250.59;5095643;28;20067;-70
2022/05/24 04:40:15;;;;;;;3.58;1.60;;;;;;;10.84;29.98;98247.97;5103769;28;20059;-70
2022/05/24 04:42:42;;;;;;;4.88;1.88;;;;;;;10.99;30.15;98247.88;5116057;28;20062;-70
2022/05/24 04:45:12;;;;;;;8.07;1.80;;;;;;;11.13;29.35;98245.38;5115665;28;20051;-70
2022/05/24 04:47:39;;;;;;;6.88;1.75;;;;;;;11.19;29.26;98243.09;5115777;28;20047;-71
2022/05/24 04:50:10;;;;;;;4.60;1.45;;;;;;;11.28;28.93;98246.47;5115628;28;20044;-70
2022/05/24 04:52:40;;;;;;;9.77;1.90;;;;;;;11.11;28.90;98241.38;5115590;28;20059;-70
2022/05/24 04:55:11;;;;;;;3.85;1.55;;;;;;;11.00;29.40;98245.91;5115256;28;20104;-70
2022/05/24 04:57:40;;;;;;;7.40;1.95;;;;;;;11.05;28.79;98245.63;5115497;28;20070;-72
2022/05/24 05:00:13;;;;;;;10.05;1.75;;;;;;;11.14;28.41;98235.06;5115554;28;20052;-70
2022/05/24 05:02:42;;;;;;;10.55;1.52;;;;;;;11.25;28.25;98238.06;5115496;27;20047;-71
2022/05/24 05:05:09;;;;;;;8.90;2.50;;;;;;;11.39;27.99;98241.91;5115585;28;20109;-71
2022/05/24 05:07:36;;;;;;;10.85;3.15;;;;;;;11.55;28.04;98227.88;5115377;28;20048;-71
2022/05/24 05:10:04;;;;;;;7.15;1.83;;;;;;;11.69;26.97;98234.53;5113776;28;20071;-71
2022/05/24 05:12:31;;;;;;;7.35;1.67;;;;;;;11.83;27.27;98228.38;5114912;28;20097;-71
2022/05/24 05:14:58;;;;;;;5.18;1.73;;;;;;;11.93;27.33;98227.78;5115152;28;20066;-70
2022/05/24 05:17:25;;;;;;;6.75;1.45;;;;;;;11.92;26.93;98229.75;5115171;28;20101;-70
2022/05/24 05:19:52;;;;;;;2.13;1.60;;;;;;;12.01;26.42;98229.47;5100202;28;20071;-70
2022/05/24 05:22:21;;;;;;;2.00;1.10;;;;;;;12.03;26.05;98227.13;5094316;28;20132;-70
2022/05/24 05:24:49;;;;;;;1.95;1.20;;;;;;;12.03;25.61;98232.72;5094157;28;20050;-70
2022/05/24 05:27:17;;;;;;;2.63;1.45;;;;;;;12.15;25.07;98218.56;5094342;28;20052;-70
2022/05/24 05:32:32;;;;;;;5.57;1.90;;;;;;;12.26;24.65;98225.13;5094432;28;20078;-70
2022/05/24 05:35:00;;;;;;;15.45;1.60;;;;;;;12.40;24.44;98220.53;5094460;28;20044;-71
2022/05/24 05:37:29;;;;;;;5.43;1.10;;;;;;;12.45;24.23;98217.44;5094438;28;20521;-71
2022/05/24 05:39:57;;;;;;;10.60;1.57;;;;;;;12.54;23.89;98226.31;5099854;28;20048;-70
2022/05/24 05:42:24;;;;;;;3.72;1.48;;;;;;;12.75;23.82;98231.38;5113154;28;20297;-70
2022/05/24 05:44:52;;;;;;;2.75;1.10;;;;;;;12.60;24.04;98230.41;5114628;28;20448;-71
2022/05/24 05:47:19;;;;;;;6.78;1.23;;;;;;;12.80;23.58;98229.06;5114507;28;20101;-70
2022/05/24 05:49:46;;;;;;;6.45;1.65;;;;;;;13.20;23.49;98224.81;5114705;28;20047;-71
2022/05/24 05:52:14;;;;;;;12.85;1.70;;;;;;;13.28;23.40;98227.28;5114199;28;20051;-72
2022/05/24 05:54:41;;;;;;;9.85;1.33;;;;;;;13.24;23.23;98211.69;5114669;28;20071;-71
2022/05/24 05:57:11;;;;;;;4.97;2.25;;;;;;;13.25;23.07;98221.66;5114165;28;20059;-71
2022/05/24 05:59:38;;;;;;;9.27;1.52;;;;;;;13.13;23.61;98196.78;5113459;28;20071;-71
2022/05/24 06:02:07;;;;;;;6.55;1.33;;;;;;;13.29;22.99;98216.94;5108870;28;20056;-71
2022/05/24 06:04:34;;;;;;;2.97;1.27;;;;;;;13.31;22.86;98220.94;5114587;28;20541;-71
2022/05/24 06:07:03;;;;;;;7.88;1.30;;;;;;;13.36;23.08;98217.00;5113866;28;20088;-72
2022/05/24 06:09:30;;;;;;;4.65;1.40;;;;;;;13.37;23.14;98224.19;5096368;28;20490;-71
2022/05/24 06:11:57;;;;;;;11.93;1.77;;;;;;;13.42;22.81;98221.06;5092123;28;20058;-72
2022/05/24 06:14:24;;;;;;;2.72;1.00;;;;;;;13.31;23.00;98231.28;5093648;28;20135;-72
2022/05/24 06:17:12;;;;;;;2.45;1.20;;;;;;;13.22;23.26;98234.41;5093586;28;20055;-72
2022/05/24 06:19:39;;;;;;;8.30;1.67;;;;;;;13.30;23.24;98226.91;5093342;28;20055;-73
2022/05/24 06:22:06;;;;;;;2.80;1.35;;;;;;;13.17;23.04;98208.81;5091971;28;20075;-72
2022/05/24 06:24:33;;;;;;;4.22;1.20;;;;;;;13.22;23.17;98212.06;5093678;28;20040;-72
2022/05/24 06:27:00;;;;;;;2.25;1.08;;;;;;;13.45;22.20;98215.50;5093349;28;20113;-71
2022/05/24 06:29:27;;;;;;;3.00;1.30;;;;;;;13.37;22.40;98211.03;5093380;28;20079;-70
2022/05/24 06:31:54;;;;;;;1.75;1.10;;;;;;;13.21;22.69;98223.63;5093442;28;20052;-70
2022/05/24 06:34:21;;;;;;;8.68;1.45;;;;;;;13.20;23.01;98219.22;5093012;28;20051;-71
2022/05/24 06:36:48;;;;;;;9.35;1.48;;;;;;;13.06;22.62;98216.25;5093097;28;20048;-70
2022/05/24 06:39:15;;;;;;;6.85;1.50;;;;;;;13.06;23.10;98224.63;5093502;28;20066;-71
2022/05/24 06:41:45;;;;;;;3.92;1.20;;;;;;;13.24;22.37;98211.69;5092491;28;20060;-71
2022/05/24 06:44:12;;;;;;;2.58;1.20;;;;;;;13.49;22.37;98209.94;5092786;28;20083;-70
2022/05/24 06:46:39;;;;;;;6.32;1.33;;;;;;;13.40;22.26;98212.25;5092738;28;20143;-70
2022/05/24 06:49:05;;;;;;;3.58;1.30;;;;;;;13.17;21.64;98220.00;5092745;28;20044;-68
2022/05/24 06:51:33;;;;;;;6.30;1.35;;;;;;;13.13;21.48;98216.34;5093285;28;20442;-71
2022/05/24 06:54:00;;;;;;;138.07;8.95;;;;;;;13.32;21.51;98221.75;5089887;28;20056;-69
2022/05/24 06:56:27;;;;;;;11.77;2.00;;;;;;;13.46;20.91;98221.88;5092679;28;20044;-69
2022/05/24 07:02:25;;;;;;;29.20;2.42;;;;;;;13.36;21.08;98225.38;5111289;28;20070;-71
2022/05/24 07:04:27;;;;;;;6.30;1.90;;;;;;;12.98;21.86;98248.03;5112681;28;20044;-70
2022/05/24 07:06:54;;;;;;;6.20;1.30;;;;;;;12.75;22.00;98240.56;5113134;28;20047;-71
2022/05/24 07:09:23;;;;;;;10.02;1.55;;;;;;;12.64;22.34;98234.03;5113152;28;20066;-71
2022/05/24 07:11:50;;;;;;;2.70;1.15;;;;;;;12.60;22.40;98235.97;5112630;28;20057;-71
2022/05/24 07:14:17;;;;;;;146.35;8.95;;;;;;;12.40;22.78;98234.47;5112987;28;20533;-71
2022/05/24 07:16:44;;;;;;;10.38;1.63;;;;;;;12.25;23.16;98246.59;5113101;28;20043;-71
2022/05/24 07:19:11;;;;;;;4.82;1.70;;;;;;;12.26;22.45;98250.22;5113054;28;20048;-71
2022/05/24 07:21:38;;;;;;;2.90;1.35;;;;;;;12.32;23.29;98252.28;5113061;28;20046;-71
2022/05/24 07:24:05;;;;;;;36.25;2.33;;;;;;;12.34;23.38;98254.69;5112846;28;20142;-71
2022/05/24 07:26:32;;;;;;;9.40;2.10;;;;;;;12.34;23.40;98261.09;5112826;28;20048;-71
2022/05/24 07:29:19;;;;;;;8.07;2.28;;;;;;;12.57;23.58;98250.69;5112825;28;20044;-71
2022/05/24 07:31:46;;;;;;;5.80;1.20;;;;;;;13.12;22.30;98262.19;5112566;28;20044;-69
2022/05/24 07:34:13;;;;;;;5.05;1.10;;;;;;;13.36;21.96;98258.91;5112597;28;20157;-68
2022/05/24 07:36:40;;;;;;;402.63;35.05;;;;;;;13.33;22.38;98256.88;5112710;28;20540;-68
2022/05/24 07:39:07;;;;;;;24.05;2.25;;;;;;;13.32;22.29;98266.44;5111290;28;20131;-69
2022/05/24 07:47:30;;;;;;;7.78;1.65;;;;;;;12.96;23.86;98281.13;5112786;28;20502;-69
2022/05/24 07:49:58;;;;;;;14.43;2.65;;;;;;;13.33;23.38;98284.78;5113294;28;20494;-68
2022/05/24 07:52:25;;;;;;;2.75;1.70;;;;;;;13.65;23.40;98269.19;5112540;28;20055;-69
2022/05/24 07:54:52;;;;;;;4.20;1.70;;;;;;;14.13;22.95;98271.66;5115660;28;20075;-69
2022/05/24 07:57:20;;;;;;;22.95;2.13;;;;;;;14.65;22.55;98276.06;5116601;28;20503;-69
2022/05/24 07:59:51;;;;;;;2.40;1.33;;;;;;;14.43;22.84;98271.50;5116720;28;20060;-69
2022/05/24 08:02:20;;;;;;;7.30;1.65;;;;;;;13.98;23.88;98283.09;5116419;28;20054;-68
2022/05/24 08:04:47;;;;;;;5.72;1.65;;;;;;;13.38;24.81;98293.63;5116255;28;20403;-68
2022/05/24 08:07:15;;;;;;;3.47;1.55;;;;;;;12.96;25.53;98292.28;5116350;28;20066;-69
2022/05/24 08:09:42;;;;;;;8.13;1.75;;;;;;;12.60;26.50;98280.63;5116505;28;20081;-68
2022/05/24 08:12:09;;;;;;;3.53;1.73;;;;;;;12.70;26.68;98307.03;5114820;28;20525;-68
2022/05/24 08:14:36;;;;;;;6.45;2.53;;;;;;;12.45;27.27;98309.47;5115961;28;20051;-68
2022/05/24 08:17:04;;;;;;;2.88;1.48;;;;;;;12.36;26.77;98325.66;5116240;28;20097;-68
2022/05/24 08:19:37;;;;;;;3.00;1.50;;;;;;;12.02;27.63;98337.81;5102081;28;20071;-68
2022/05/24 08:22:05;;;;;;;4.80;2.03;;;;;;;11.77;28.81;98339.34;5095673;28;20586;-68
2022/05/24 08:24:33;;;;;;;5.85;1.77;;;;;;;11.68;29.62;98335.19;5108966;28;20054;-68
2022/05/24 08:27:00;;;;;;;4.18;1.65;;;;;;;11.39;30.07;98353.28;5115831;28;20138;-68
2022/05/24 08:29:27;;;;;;;11.23;1.85;;;;;;;11.27;31.60;98356.22;5115990;28;20064;-68
2022/05/24 08:31:54;;;;;;;14.18;1.50;;;;;;;11.33;31.45;98357.53;5115532;28;20054;-69
2022/05/24 08:34:22;;;;;;;15.15;2.85;;;;;;;11.38;30.98;98362.00;5115905;28;20460;-68
2022/05/24 08:36:49;;;;;;;6.28;1.55;;;;;;;11.43;30.97;98370.84;5115769;28;20126;-68
2022/05/24 08:39:15;;;;;;;5.30;1.58;;;;;;;11.19;32.58;98375.91;5114812;28;20092;-68
2022/05/24 08:42:11;;;;;;;3.08;1.60;;;;;;;11.18;33.15;98391.81;5114658;28;20506;-68
2022/05/24 08:50:44;;;;;;;7.40;2.00;;;;;;;11.16;32.92;98402.50;5113895;28;20140;-68
2022/05/24 08:53:17;;;;;;;6.13;1.73;;;;;;;11.20;33.25;98400.59;5115778;28;20057;-69
2022/05/24 08:55:44;;;;;;;9.85;1.80;;;;;;;11.16;32.91;98408.06;5115078;28;20050;-68
2022/05/24 08:58:20;;;;;;;4.13;1.60;;;;;;;11.29;33.18;98408.75;5115512;28;20055;-69
2022/05/24 09:00:46;;;;;;;11.38;1.67;;;;;;;11.02;33.88;98405.75;5115199;28;20047;-73
2022/05/24 09:03:14;;;;;;;3.00;1.30;;;;;;;10.64;34.49;98415.97;5114854;28;20091;-73
2022/05/24 09:05:57;;;;;;;10.68;1.75;;;;;;;10.75;34.02;98417.84;5114587;28;20040;-71
2022/05/24 09:08:30;;;;;;;6.68;1.67;;;;;;;10.86;34.79;98426.44;5105126;28;20044;-69
2022/05/24 09:11:08;;;;;;;5.93;1.65;;;;;;;11.01;34.18;98428.38;5094493;28;20052;-68
2022/05/24 09:14:20;;;;;;;8.02;1.63;;;;;;;10.93;34.09;98426.63;5105534;28;20131;-69
2022/05/24 09:17:02;;;;;;;2.83;1.85;;;;;;;10.65;35.46;98439.84;5111099;28;20056;-68
2022/05/24 09:19:35;;;;;;;6.25;1.48;;;;;;;10.38;35.42;98447.13;5115287;28;20082;-68
2022/05/24 09:22:04;;;;;;;3.58;1.08;;;;;;;10.43;35.22;98443.25;5115079;28;20391;-68
2022/05/24 09:25:01;;;;;;;6.38;1.60;;;;;;;10.61;35.52;98445.34;5114699;28;20082;-68
2022/05/24 09:27:30;;;;;;;4.15;1.58;;;;;;;10.55;34.80;98452.31;5116040;28;20386;-68
2022/05/24 09:30:08;;;;;;;5.10;1.65;;;;;;;10.37;36.26;98455.81;5116810;28;20476;-67
2022/05/24 09:32:42;;;;;;;4.30;1.75;;;;;;;10.73;36.38;98452.75;5115255;28;20112;-68
2022/05/24 09:35:09;;;;;;;3.90;1.67;;;;;;;11.07;35.67;98454.75;5096661;28;20101;-68
2022/05/24 09:37:37;;;;;;;3.40;1.50;;;;;;;11.42;35.52;98458.34;5094336;28;20056;-68
2022/05/24 09:40:19;;;;;;;11.38;2.25;;;;;;;11.81;35.34;98468.38;5094121;28;20089;-68
2022/05/24 09:42:46;;;;;;;6.22;2.10;;;;;;;11.75;35.17;98467.06;5094261;28;20062;-68
2022/05/24 09:45:27;;;;;;;4.65;1.63;;;;;;;11.59;35.60;98479.41;5094223;28;20044;-69
2022/05/24 09:47:58;;;;;;;8.10;2.10;;;;;;;11.18;36.08;98489.22;5094209;28;20060;-68
2022/05/24 09:50:32;;;;;;;2.50;1.45;;;;;;;10.97;36.29;98486.75;5094051;28;20130;-68
2022/05/24 09:53:02;;;;;;;4.32;1.65;;;;;;;10.77;36.87;98492.59;5094061;28;20089;-68
2022/05/24 09:55:29;;;;;;;4.63;1.50;;;;;;;10.66;37.03;98503.44;5093608;28;20085;-69
2022/05/24 09:58:27;;;;;;;4.75;1.48;;;;;;;10.58;36.51;98506.41;5093128;28;20048;-68
2022/05/24 10:01:11;;;;;;;5.47;1.95;;;;;;;10.57;36.90;98502.03;5094218;28;20059;-68
2022/05/24 10:03:47;;;;;;;10.95;1.70;;;;;;;10.42;37.56;98500.81;5109715;28;20477;-68
2022/05/24 10:06:14;;;;;;;3.55;1.58;;;;;;;10.56;36.90;98505.94;5112921;28;20558;-67
2022/05/24 10:08:48;;;;;;;3.67;1.60;;;;;;;10.68;37.23;98511.44;5114460;28;20052;-68
2022/05/24 10:11:26;;;;;;;8.02;1.63;;;;;;;10.84;36.81;98501.13;5113623;28;20063;-68
2022/05/24 10:14:14;;;;;;;5.20;1.80;;;;;;;11.08;36.06;98504.50;5114323;28;20050;-69
2022/05/24 10:16:48;;;;;;;6.35;1.55;;;;;;;11.24;36.07;98515.63;5112848;28;20410;-68
2022/05/24 10:19:30;;;;;;;2.97;1.70;;;;;;;11.08;36.28;98510.06;5113694;28;20047;-68
2022/05/24 10:22:18;;;;;;;9.73;1.65;;;;;;;10.80;36.29;98516.91;5113701;28;20048;-67
2022/05/24 10:25:22;;;;;;;14.57;1.73;;;;;;;10.88;36.37;98507.56;5113835;28;20078;-68
2022/05/24 10:28:02;;;;;;;3.83;1.58;;;;;;;11.20;36.34;98516.69;5114044;28;20039;-68
2022/05/24 10:30:34;;;;;;;5.18;1.60;;;;;;;11.21;36.00;98515.53;5113451;28;20426;-68
2022/05/24 10:39:07;;;;;;;4.90;1.45;;;;;;;10.96;35.86;98529.66;5113689;28;20051;-68
2022/05/24 10:42:09;;;;;;;3.67;1.30;;;;;;;10.76;36.36;98529.94;5113449;28;20448;-68
2022/05/24 10:44:46;;;;;;;3.42;1.70;;;;;;;10.66;36.86;98542.38;5080795;28;20138;-68
2022/05/24 10:47:31;;;;;;;5.22;1.63;;;;;;;10.62;36.54;98541.50;5110127;28;20133;-67
2022/05/24 10:50:05;;;;;;;6.40;1.70;;;;;;;10.69;36.79;98547.22;5093108;28;20058;-67
2022/05/24 10:52:44;;;;;;;4.35;1.90;;;;;;;10.67;37.42;98545.97;5092740;28;20058;-66
2022/05/24 10:55:20;;;;;;;3.90;1.43;;;;;;;10.51;37.38;98539.59;5092968;28;20131;-66
2022/05/24 10:57:51;;;;;;;6.28;1.70;;;;;;;10.20;37.90;98562.56;5092982;28;20051;-67
2022/05/24 11:00:23;;;;;;;5.63;1.45;;;;;;;10.01;38.11;98565.13;5092694;28;20051;-66
2022/05/24 11:03:11;;;;;;;14.30;2.03;;;;;;;9.91;38.41;98559.28;5093261;28;20523;-67
2022/05/24 11:05:55;;;;;;;4.88;1.73;;;;;;;9.90;38.52;98563.22;5103369;28;20506;-67
2022/05/24 11:08:46;;;;;;;3.20;1.73;;;;;;;9.91;38.62;98567.59;5113258;28;20047;-68
2022/05/24 11:11:26;;;;;;;5.97;1.58;;;;;;;10.19;38.39;98566.50;5112515;28;20063;-67
2022/05/24 11:14:03;;;;;;;6.13;1.67;;;;;;;10.34;38.25;98576.06;5113172;28;20477;-67
2022/05/24 11:16:46;;;;;;;7.45;1.88;;;;;;;10.47;38.21;98564.53;5112820;28;20078;-66
2022/05/24 11:19:21;;;;;;;6.43;1.80;;;;;;;10.90;37.06;98569.25;5113079;28;20051;-67
2022/05/24 11:22:00;;;;;;;5.38;1.27;;;;;;;11.47;36.11;98563.91;5112933;28;20054;-72
2022/05/24 11:24:40;;;;;;;11.20;1.50;;;;;;;11.68;36.40;98567.22;5113005;28;20051;-66
2022/05/24 11:27:11;;;;;;;2.60;1.58;;;;;;;11.74;35.09;98562.16;5112887;28;20175;-68
2022/05/24 11:29:51;;;;;;;2.83;1.40;;;;;;;11.32;35.30;98575.88;5117170;28;20128;-68
2022/05/24 11:32:38;;;;;;;4.63;2.17;;;;;;;11.05;36.16;98579.56;5116869;28;20484;-66
2022/05/24 11:35:08;;;;;;;5.47;1.70;;;;;;;10.54;37.17;98581.38;5116536;28;20058;-67
2022/05/24 11:37:38;;;;;;;2.88;1.40;;;;;;;10.31;37.20;98590.66;5117121;27;20079;-67
2022/05/24 11:40:31;;;;;;;5.60;1.58;;;;;;;10.16;38.26;98585.84;5115823;28;20087;-67
2022/05/24 11:43:07;;;;;;;5.82;1.60;;;;;;;10.12;37.83;98587.72;5106616;28;20074;-65
2022/05/24 11:45:34;;;;;;;138.88;6.78;;;;;;;10.09;38.13;98593.97;5109028;28;20044;-65
2022/05/24 11:48:07;;;;;;;16.73;1.75;;;;;;;10.35;37.23;98597.13;5107978;28;20389;-71
2022/05/24 11:50:35;;;;;;;8.15;2.38;;;;;;;10.55;37.04;98590.53;5113790;28;20039;-71
2022/05/24 11:53:07;;;;;;;18.90;2.38;;;;;;;10.85;36.29;98600.94;5115315;28;20073;-70
2022/05/24 11:55:44;;;;;;;6.22;1.23;;;;;;;11.09;35.69;98599.94;5096950;22;20058;-65
2022/05/24 11:58:20;;;;;;;15.73;3.22;;;;;;;11.18;35.47;98603.34;5013599;28;20092;-65
2022/05/24 12:01:04;;;;;;;11.05;1.50;;;;;;;11.13;35.39;98589.69;5014152;28;20124;-67
2022/05/24 12:10:23;;;;;;;2.45;1.10;;;;;;;10.48;36.62;98609.81;5010021;28;20057;-69
2022/05/24 12:12:56;;;;;;;1.85;1.30;;;;;;;10.34;36.88;98610.22;5007311;28;20053;-69
2022/05/24 12:15:44;;;;;;;2.60;1.00;;;;;;;10.20;36.32;98622.88;5015391;28;20045;-71
2022/05/24 12:18:11;;;;;;;1.80;0.77;;;;;;;10.22;35.86;98617.78;5014738;28;20479;-69
2022/05/24 12:20:38;;;;;;;2.80;0.90;;;;;;;10.31;35.61;98629.56;5015188;28;20056;-72
2022/05/24 12:23:09;;;;;;;44.55;2.42;;;;;;;10.44;35.30;98622.78;5015974;28;20074;-69
2022/05/24 12:26:01;;;;;;;34.08;2.60;;;;;;;10.47;35.20;98617.34;5015080;28;20054;-70
2022/05/24 12:28:34;;;;;;;3.20;0.70;;;;;;;10.79;34.19;98632.13;5012557;28;20088;-70
2022/05/24 12:31:16;;;;;;;5.95;0.90;;;;;;;11.06;33.78;98628.50;5014909;28;20053;-68
2022/05/24 12:33:54;;;;;;;3.60;1.50;;;;;;;11.35;33.83;98630.03;5015052;28;20080;-68
2022/05/24 12:36:44;;;;;;;2.13;0.73;;;;;;;11.44;33.17;98637.03;5002539;28;20476;-69